createdAt,value
2022-10-04T00:01:50.034Z,20.40
2022-10-04T00:04:16.728Z,18.70
2022-10-04T00:06:54.616Z,15.90
2022-10-04T00:09:26.194Z,19.30
2022-10-04T00:11:55.705Z,16.60
2022-10-04T00:14:50.855Z,16.20
2022-10-04T00:17:27.243Z,16.42
2022-10-04T00:19:54.883Z,20.20
2022-10-04T00:22:29.395Z,18.48
2022-10-04T00:25:17.502Z,17.45
2022-10-04T00:28:21.504Z,19.45
2022-10-04T00:31:06.993Z,19.08
2022-10-04T00:33:42.779Z,16.35
2022-10-04T00:36:24.532Z,20.70
2022-10-04T00:39:09.200Z,19.92
2022-10-04T00:41:58.616Z,18.48
2022-10-04T00:44:25.216Z,16.67
2022-10-04T00:46:52.759Z,17.88
2022-10-04T00:49:23.388Z,17.33
2022-10-04T00:52:05.555Z,16.40
2022-10-04T00:54:41.462Z,19.80
2022-10-04T00:57:16.751Z,18.73
2022-10-04T00:59:45.517Z,19.17
2022-10-04T01:02:36.595Z,16.52
2022-10-04T01:05:09.231Z,18.88
2022-10-04T01:07:50.507Z,21.02
2022-10-04T01:10:26.975Z,19.38
2022-10-04T01:13:15.955Z,14.27
2022-10-04T01:15:45.024Z,22.85
2022-10-04T01:18:26.987Z,18.88
2022-10-04T01:21:04.647Z,17.08
2022-10-04T01:23:46.807Z,22.40
2022-10-04T01:26:34.425Z,21.38
2022-10-04T01:29:14.829Z,18.33
2022-10-04T01:31:47.645Z,18.92
2022-10-04T01:34:17.108Z,21.70
2022-10-04T01:36:47.142Z,20.98
2022-10-04T01:39:15.885Z,17.25
2022-10-04T01:41:58.276Z,18.38
2022-10-04T01:44:36.639Z,16.98
2022-10-04T01:47:08.116Z,19.58
2022-10-04T01:49:38.535Z,23.30
2022-10-04T01:52:15.192Z,19.10
2022-10-04T01:54:46.416Z,17.48
2022-10-04T01:57:17.948Z,17.15
2022-10-04T02:00:01.351Z,25.65
2022-10-04T02:02:43.176Z,19.70
2022-10-04T02:05:18.437Z,18.08
2022-10-04T02:07:46.089Z,18.63
2022-10-04T02:10:19.294Z,17.70
2022-10-04T02:12:49.568Z,20.92
2022-10-04T02:15:18.427Z,18.45
2022-10-04T02:17:45.523Z,18.98
2022-10-04T02:20:16.751Z,19.73
2022-10-04T02:22:46.023Z,18.88
2022-10-04T02:25:14.636Z,20.83
2022-10-04T02:27:41.481Z,20.20
2022-10-04T02:30:11.458Z,19.60
2022-10-04T02:32:59.687Z,21.35
2022-10-04T02:35:37.735Z,15.65
2022-10-04T02:38:23.540Z,20.42
2022-10-04T02:40:53.949Z,17.05
2022-10-04T02:43:27.309Z,20.73
2022-10-04T02:48:34.456Z,22.90
2022-10-04T02:51:14.879Z,22.02
2022-10-04T02:54:03.380Z,18.90
2022-10-04T02:56:32.355Z,20.33
2022-10-04T02:59:04.450Z,21.65
2022-10-04T03:01:52.070Z,17.73
2022-10-04T03:04:25.200Z,19.02
2022-10-04T03:06:53.143Z,19.58
2022-10-04T03:09:26.116Z,20.27
2022-10-04T03:11:56.373Z,20.92
2022-10-04T03:14:27.999Z,20.42
2022-10-04T03:16:57.815Z,18.17
2022-10-04T03:19:27.559Z,23.08
2022-10-04T03:21:57.521Z,19.60
2022-10-04T03:24:31.045Z,20.83
2022-10-04T03:27:00.415Z,31.00
2022-10-04T03:29:30.173Z,20.00
2022-10-04T03:31:58.148Z,20.77
2022-10-04T03:34:39.701Z,27.55
2022-10-04T03:37:09.633Z,20.48
2022-10-04T03:39:45.772Z,22.50
2022-10-04T03:42:15.792Z,23.17
2022-10-04T03:44:45.293Z,27.90
2022-10-04T03:47:16.082Z,26.02
2022-10-04T03:49:49.907Z,21.90
2022-10-04T03:52:24.711Z,20.27
2022-10-04T03:54:55.115Z,23.58
2022-10-04T03:57:22.729Z,26.55
2022-10-04T03:59:50.559Z,24.02
2022-10-04T04:02:33.610Z,27.02
2022-10-04T04:05:06.696Z,24.23
2022-10-04T04:08:06.567Z,23.23
2022-10-04T04:10:41.928Z,24.85
2022-10-04T04:13:11.329Z,25.38
2022-10-04T04:15:43.376Z,23.85
2022-10-04T04:18:24.424Z,23.42
2022-10-04T04:20:54.390Z,21.50
2022-10-04T04:23:30.035Z,24.65
2022-10-04T04:26:11.678Z,25.73
2022-10-04T04:29:18.860Z,26.67
2022-10-04T04:32:12.932Z,26.77
2022-10-04T04:35:00.497Z,24.33
2022-10-04T04:37:27.172Z,28.50
2022-10-04T04:39:57.742Z,26.42
2022-10-04T04:42:34.848Z,27.85
2022-10-04T04:45:11.812Z,24.13
2022-10-04T04:47:53.368Z,25.17
2022-10-04T04:50:23.624Z,28.60
2022-10-04T04:52:54.828Z,23.50
2022-10-04T04:55:27.843Z,24.55
2022-10-04T04:57:58.067Z,24.15
2022-10-04T05:00:32.780Z,24.98
2022-10-04T05:03:05.750Z,26.35
2022-10-04T05:05:34.116Z,27.73
2022-10-04T05:08:22.253Z,26.90
2022-10-04T05:10:58.179Z,27.10
2022-10-04T05:13:38.967Z,26.40
2022-10-04T05:16:14.344Z,24.73
2022-10-04T05:18:41.068Z,24.33
2022-10-04T05:21:20.319Z,24.75
2022-10-04T05:23:47.303Z,24.25
2022-10-04T05:28:41.923Z,27.45
2022-10-04T05:31:28.769Z,24.70
2022-10-04T05:33:59.162Z,22.88
2022-10-04T05:36:43.024Z,25.65
2022-10-04T05:39:24.697Z,25.00
2022-10-04T05:42:02.529Z,26.10
2022-10-04T05:44:35.074Z,24.08
2022-10-04T05:47:05.436Z,23.48
2022-10-04T05:49:46.444Z,23.05
2022-10-04T05:52:30.715Z,26.33
2022-10-04T05:55:12.863Z,25.15
2022-10-04T05:57:54.324Z,27.42
2022-10-04T06:00:25.459Z,22.23
2022-10-04T06:03:26.832Z,26.95
2022-10-04T06:06:06.134Z,22.70
2022-10-04T06:08:38.520Z,24.05
2022-10-04T06:11:16.595Z,23.40
2022-10-04T06:14:04.972Z,22.00
2022-10-04T06:17:06.197Z,22.90
2022-10-04T06:19:53.072Z,23.95
2022-10-04T06:22:22.683Z,21.38
2022-10-04T06:25:03.210Z,27.67
2022-10-04T06:27:53.897Z,20.83
2022-10-04T06:30:21.566Z,24.65
2022-10-04T06:33:03.180Z,22.77
2022-10-04T06:35:36.044Z,27.63
2022-10-04T06:38:20.566Z,25.65
2022-10-04T06:41:11.299Z,22.95
2022-10-04T06:44:08.724Z,25.05
2022-10-04T06:46:43.075Z,24.83
2022-10-04T06:49:09.787Z,25.48
2022-10-04T06:51:58.466Z,21.80
2022-10-04T06:54:46.249Z,21.00
2022-10-04T06:57:41.088Z,29.75
2022-10-04T07:00:26.174Z,24.45
2022-10-04T07:02:59.888Z,21.17
2022-10-04T07:05:36.825Z,18.83
2022-10-04T07:08:31.180Z,20.40
2022-10-04T07:11:22.529Z,23.05
2022-10-04T07:14:03.624Z,21.25
2022-10-04T07:16:54.608Z,16.13
2022-10-04T07:19:49.031Z,23.30
2022-10-04T07:22:51.141Z,21.55
2022-10-04T07:25:51.835Z,17.20
2022-10-04T07:28:44.141Z,16.38
2022-10-04T07:31:31.004Z,20.00
2022-10-04T07:34:15.984Z,17.35
2022-10-04T07:36:53.222Z,17.55
2022-10-04T07:39:29.619Z,16.67
2022-10-04T07:42:38.833Z,19.73
2022-10-04T07:45:19.458Z,15.10
2022-10-04T07:47:46.151Z,20.13
2022-10-04T07:50:22.032Z,13.43
2022-10-04T07:53:09.660Z,14.05
2022-10-04T07:55:57.193Z,13.90
2022-10-04T07:58:23.857Z,13.32
2022-10-04T08:01:10.104Z,17.70
2022-10-04T08:03:56.439Z,17.23
2022-10-04T08:06:43.970Z,17.67
2022-10-04T08:09:10.759Z,17.27
2022-10-04T08:11:50.013Z,16.90
2022-10-04T08:14:51.715Z,15.38
2022-10-04T08:17:55.855Z,20.02
2022-10-04T08:20:36.764Z,17.35
2022-10-04T08:23:18.185Z,17.58
2022-10-04T08:26:32.523Z,17.05
2022-10-04T08:29:44.008Z,13.65
2022-10-04T08:32:32.181Z,16.58
2022-10-04T08:35:27.874Z,15.05
2022-10-04T08:37:54.543Z,16.00
2022-10-04T08:40:32.931Z,15.88
2022-10-04T08:43:37.421Z,12.73
2022-10-04T08:46:25.354Z,15.73
2022-10-04T08:49:10.567Z,13.70
2022-10-04T08:51:58.931Z,19.10
2022-10-04T08:54:51.959Z,17.90
2022-10-04T08:57:33.226Z,16.70
2022-10-04T09:00:16.552Z,19.25
2022-10-04T09:03:13.939Z,16.02
2022-10-04T09:06:10.874Z,12.85
2022-10-04T09:08:46.727Z,16.42
2022-10-04T09:11:43.100Z,17.35
2022-10-04T09:14:40.122Z,14.80
2022-10-04T09:17:46.735Z,14.38
2022-10-04T09:20:40.155Z,16.08
2022-10-04T09:23:24.884Z,16.83
2022-10-04T09:26:14.310Z,12.63
2022-10-04T09:29:08.208Z,14.00
2022-10-04T09:32:02.492Z,13.48
2022-10-04T09:34:38.639Z,11.23
2022-10-04T09:37:23.948Z,13.57
2022-10-04T09:40:09.571Z,16.88
2022-10-04T09:42:54.505Z,14.63
2022-10-04T09:45:36.216Z,19.58
2022-10-04T09:48:25.152Z,12.43
2022-10-04T09:51:13.052Z,17.02
2022-10-04T09:54:09.830Z,16.15
2022-10-04T09:57:13.196Z,15.75
2022-10-04T10:00:01.484Z,12.55
2022-10-04T10:02:55.468Z,17.08
2022-10-04T10:05:49.155Z,13.65
2022-10-04T10:08:28.487Z,14.43
2022-10-04T10:14:29.967Z,15.82
2022-10-04T10:17:00.898Z,15.38
2022-10-04T10:19:54.732Z,14.05
2022-10-04T10:22:31.239Z,12.55
2022-10-04T10:25:20.725Z,13.68
2022-10-04T10:27:55.884Z,11.13
2022-10-04T10:30:25.755Z,14.93
2022-10-04T10:33:24.930Z,12.40
2022-10-04T10:36:16.994Z,14.88
2022-10-04T10:38:46.640Z,11.00
2022-10-04T10:41:37.139Z,11.77
2022-10-04T10:44:23.365Z,13.07
2022-10-04T10:47:01.507Z,11.93
2022-10-04T10:49:36.815Z,11.82
2022-10-04T10:52:38.309Z,14.82
2022-10-04T10:55:28.730Z,13.80
2022-10-04T10:58:29.225Z,14.25
2022-10-04T11:01:14.469Z,11.60
2022-10-04T11:04:03.209Z,12.23
2022-10-04T11:07:14.807Z,14.15
2022-10-04T11:09:47.361Z,12.20
2022-10-04T11:12:41.739Z,10.95
2022-10-04T11:15:33.123Z,12.07
2022-10-04T11:18:21.451Z,11.70
2022-10-04T11:21:07.988Z,11.35
2022-10-04T11:23:53.370Z,16.25
2022-10-04T11:26:49.345Z,10.18
2022-10-04T11:29:37.773Z,11.57
2022-10-04T11:32:51.204Z,10.10
2022-10-04T11:35:36.804Z,12.95
2022-10-04T11:40:59.946Z,10.18
2022-10-04T11:43:46.396Z,9.35
2022-10-04T11:46:29.503Z,8.45
2022-10-04T11:49:22.408Z,8.23
2022-10-04T11:52:13.074Z,11.93
2022-10-04T11:55:01.090Z,9.82
2022-10-04T11:57:52.389Z,11.43
2022-10-04T12:00:21.615Z,11.52
2022-10-04T12:03:27.685Z,10.88
2022-10-04T12:06:03.435Z,10.52
2022-10-04T12:08:33.233Z,11.57
2022-10-04T12:11:18.062Z,9.65
2022-10-04T12:13:56.241Z,15.98
2022-10-04T12:16:37.004Z,10.57
2022-10-04T12:19:41.131Z,11.18
2022-10-04T12:22:16.608Z,11.55
2022-10-04T12:25:12.696Z,9.52
2022-10-04T12:27:52.616Z,12.50
2022-10-04T12:30:37.800Z,13.68
2022-10-04T12:33:32.296Z,8.30
2022-10-04T12:36:08.468Z,13.40
2022-10-04T12:38:49.885Z,9.20
2022-10-04T12:41:44.782Z,7.65
2022-10-04T12:44:54.282Z,9.90
2022-10-04T12:47:41.793Z,9.77
2022-10-04T12:50:26.081Z,9.60
2022-10-04T12:53:32.097Z,11.15
2022-10-04T12:56:28.116Z,7.80
2022-10-04T12:59:32.124Z,9.52
2022-10-04T13:04:31.713Z,8.95
2022-10-04T13:07:21.358Z,7.40
2022-10-04T13:10:23.618Z,9.40
2022-10-04T13:13:23.330Z,11.15
2022-10-04T13:19:28.126Z,9.43
2022-10-04T13:22:44.370Z,7.50
2022-10-04T13:25:25.993Z,9.55
2022-10-04T13:28:00.817Z,9.75
2022-10-04T13:30:42.783Z,8.60
2022-10-04T13:33:47.670Z,10.07
2022-10-04T13:36:54.179Z,9.43
2022-10-04T13:39:44.511Z,11.27
2022-10-04T13:42:16.609Z,11.27
2022-10-04T13:44:58.698Z,9.05
2022-10-04T13:47:45.256Z,9.10
2022-10-04T13:50:14.694Z,9.20
2022-10-04T13:53:11.708Z,13.80
2022-10-04T13:56:15.960Z,10.10
2022-10-04T13:58:48.503Z,11.25
2022-10-04T14:04:12.043Z,18.60
2022-10-04T14:07:16.379Z,10.40
2022-10-04T14:09:55.052Z,11.93
2022-10-04T14:12:27.584Z,9.88
2022-10-04T14:15:24.104Z,10.05
2022-10-04T14:18:27.168Z,13.60
2022-10-04T14:21:22.038Z,10.68
2022-10-04T14:24:17.216Z,13.40
2022-10-04T14:27:17.390Z,11.48
2022-10-04T14:30:03.140Z,11.77
2022-10-04T14:32:56.820Z,10.30
2022-10-04T14:35:33.455Z,9.48
2022-10-04T14:38:38.242Z,12.30
2022-10-04T14:41:41.322Z,12.65
2022-10-04T14:44:30.438Z,11.82
2022-10-04T14:47:20.376Z,9.52
2022-10-04T14:50:00.288Z,9.68
2022-10-04T14:52:33.912Z,11.65
2022-10-04T14:55:26.239Z,9.27
2022-10-04T14:58:12.152Z,9.80
2022-10-04T15:01:06.246Z,12.32
2022-10-04T15:03:58.184Z,7.80
2022-10-04T15:06:51.704Z,9.27
2022-10-04T15:09:38.021Z,9.38
2022-10-04T15:12:40.564Z,9.52
2022-10-04T15:15:14.258Z,10.02
2022-10-04T15:17:55.128Z,10.43
2022-10-04T15:20:43.968Z,10.77
2022-10-04T15:23:18.393Z,13.98
2022-10-04T15:25:51.715Z,10.93
2022-10-04T15:28:27.201Z,8.20
2022-10-04T15:31:14.211Z,8.82
2022-10-04T15:33:56.500Z,11.55
2022-10-04T15:36:50.906Z,8.73
2022-10-04T15:39:20.521Z,9.25
2022-10-04T15:42:08.717Z,8.07
2022-10-04T15:44:47.760Z,7.32
2022-10-04T15:47:41.933Z,11.43
2022-10-04T15:50:24.156Z,9.75
2022-10-04T15:53:34.393Z,9.55
2022-10-04T15:56:12.201Z,8.98
2022-10-04T15:58:49.339Z,11.40
2022-10-04T16:01:57.021Z,12.57
2022-10-04T16:04:40.276Z,9.77
2022-10-04T16:07:06.966Z,11.93
2022-10-04T16:09:53.707Z,9.65
2022-10-04T16:12:33.135Z,11.23
2022-10-04T16:18:23.976Z,10.70
2022-10-04T16:20:58.907Z,9.07
2022-10-04T16:23:30.072Z,8.25
2022-10-04T16:26:21.344Z,11.85
2022-10-04T16:29:15.940Z,9.23
2022-10-04T16:31:54.564Z,12.25
2022-10-04T16:34:31.656Z,10.85
2022-10-04T16:37:12.415Z,10.48
2022-10-04T16:39:59.838Z,14.15
2022-10-04T16:42:48.011Z,12.75
2022-10-04T16:45:35.570Z,13.50
2022-10-04T16:48:18.061Z,10.65
2022-10-04T16:51:00.578Z,10.82
2022-10-04T16:53:54.740Z,11.52
2022-10-04T16:56:24.350Z,10.55
2022-10-04T16:59:03.663Z,11.65
2022-10-04T17:04:03.443Z,9.60
2022-10-04T17:06:51.468Z,10.88
2022-10-04T17:09:28.676Z,9.60
2022-10-04T17:12:20.477Z,10.27
2022-10-04T17:15:16.287Z,8.95
2022-10-04T17:17:46.357Z,9.85
2022-10-04T17:20:40.870Z,10.73
2022-10-04T17:23:36.666Z,14.45
2022-10-04T17:26:31.787Z,11.88
2022-10-04T17:29:15.961Z,10.57
2022-10-04T17:32:04.176Z,10.68
2022-10-04T17:34:41.046Z,8.20
2022-10-04T17:37:26.649Z,7.72
2022-10-04T17:40:08.922Z,11.43
2022-10-04T17:42:57.162Z,11.10
2022-10-04T17:45:29.840Z,11.60
2022-10-04T17:48:24.113Z,10.15
2022-10-04T17:51:31.427Z,12.05
2022-10-04T17:54:35.193Z,10.15
2022-10-04T17:57:04.648Z,14.70
2022-10-04T17:59:41.036Z,10.18
2022-10-04T18:02:17.458Z,13.07
2022-10-04T18:05:13.045Z,9.20
2022-10-04T18:07:47.794Z,10.20
2022-10-04T18:10:27.635Z,10.48
2022-10-04T18:13:00.048Z,11.73
2022-10-04T18:15:32.751Z,10.13
2022-10-04T18:18:19.416Z,11.05
2022-10-04T18:21:04.494Z,9.75
2022-10-04T18:23:35.869Z,10.10
2022-10-04T18:26:18.070Z,10.27
2022-10-04T18:28:46.114Z,10.20
2022-10-04T18:31:39.221Z,11.98
2022-10-04T18:34:28.558Z,12.23
2022-10-04T18:37:20.054Z,11.43
2022-10-04T18:39:54.597Z,9.30
2022-10-04T18:42:28.705Z,11.18
2022-10-04T18:44:59.117Z,10.43
2022-10-04T18:47:38.007Z,9.77
2022-10-04T18:50:44.719Z,9.75
2022-10-04T18:53:40.440Z,14.98
2022-10-04T18:56:11.720Z,13.32
2022-10-04T18:59:18.688Z,13.25
2022-10-04T19:02:04.058Z,11.38
2022-10-04T19:04:54.634Z,9.23
2022-10-04T19:07:49.863Z,9.27
2022-10-04T19:10:27.171Z,10.68
2022-10-04T19:13:21.364Z,10.93
2022-10-04T19:16:09.192Z,10.88
2022-10-04T19:19:01.874Z,13.52
2022-10-04T19:22:11.245Z,13.13
2022-10-04T19:24:55.708Z,13.23
2022-10-04T19:27:36.290Z,12.35
2022-10-04T19:30:12.458Z,9.43
2022-10-04T19:33:17.294Z,12.07
2022-10-04T19:36:15.247Z,9.13
2022-10-04T19:39:02.723Z,8.65
2022-10-04T19:41:44.222Z,11.38
2022-10-04T19:44:29.556Z,16.77
2022-10-04T19:47:04.439Z,12.15
2022-10-04T19:49:56.961Z,11.10
2022-10-04T19:52:53.229Z,9.57
2022-10-04T19:55:55.739Z,9.95
2022-10-04T19:58:46.801Z,10.73
2022-10-04T20:01:19.348Z,9.07
2022-10-04T20:03:46.327Z,8.25
2022-10-04T20:06:26.101Z,9.57
2022-10-04T20:09:01.497Z,10.48
2022-10-04T20:11:51.824Z,11.00
2022-10-04T20:14:21.327Z,10.43
2022-10-04T20:16:53.167Z,10.57
2022-10-04T20:19:28.763Z,10.85
2022-10-04T20:21:56.734Z,10.77
2022-10-04T20:24:39.251Z,10.55
2022-10-04T20:27:27.798Z,9.52
2022-10-04T20:30:12.415Z,10.07
2022-10-04T20:32:39.013Z,10.15
2022-10-04T20:35:10.352Z,13.35
2022-10-04T20:38:07.901Z,11.68
2022-10-04T20:40:44.040Z,8.20
2022-10-04T20:43:13.472Z,11.43
2022-10-04T20:45:54.980Z,11.85
2022-10-04T20:48:31.193Z,9.98
2022-10-04T20:51:08.769Z,11.68
2022-10-04T20:53:35.851Z,10.63
2022-10-04T20:56:26.432Z,11.48
2022-10-04T20:59:01.487Z,13.77
2022-10-04T21:01:33.241Z,11.13
2022-10-04T21:04:41.326Z,11.00
2022-10-04T21:07:12.835Z,10.68
2022-10-04T21:09:41.792Z,10.40
2022-10-04T21:12:30.218Z,12.15
2022-10-04T21:15:15.376Z,9.45
2022-10-04T21:17:43.281Z,8.95
2022-10-04T21:20:15.393Z,10.25
2022-10-04T21:22:42.387Z,10.68
2022-10-04T21:25:28.402Z,10.30
2022-10-04T21:28:31.998Z,12.52
2022-10-04T21:31:00.386Z,10.23
2022-10-04T21:33:27.018Z,11.05
2022-10-04T21:38:20.266Z,9.48
2022-10-04T21:43:13.527Z,11.13
2022-10-04T21:48:06.801Z,10.07
2022-10-04T21:50:33.407Z,12.52
2022-10-04T21:53:00.067Z,11.30
2022-10-04T21:55:26.808Z,10.93
2022-10-04T22:00:21.127Z,11.98
2022-10-04T22:02:47.854Z,11.88
2022-10-04T22:07:41.131Z,10.90
2022-10-04T22:10:08.118Z,12.80
2022-10-04T22:12:34.786Z,9.57
2022-10-04T22:15:01.743Z,9.50
2022-10-04T22:17:28.369Z,14.05
2022-10-04T22:19:55.112Z,13.35
2022-10-04T22:24:48.396Z,13.90
2022-10-04T22:27:16.799Z,11.40
2022-10-04T22:29:44.055Z,12.13
2022-10-04T22:32:24.532Z,14.27
2022-10-04T22:34:52.032Z,10.45
2022-10-04T22:37:24.180Z,14.02
2022-10-04T22:39:55.403Z,13.98
2022-10-04T22:42:27.937Z,14.50
2022-10-04T22:44:54.595Z,12.80
2022-10-04T22:47:21.347Z,12.45
2022-10-04T22:52:22.350Z,14.70
2022-10-04T22:54:51.939Z,12.38
2022-10-04T22:57:19.738Z,12.45
2022-10-04T22:59:51.520Z,13.90
2022-10-04T23:02:29.164Z,12.20
2022-10-04T23:05:12.151Z,15.27
2022-10-04T23:07:38.906Z,11.68
2022-10-04T23:12:32.829Z,14.20
2022-10-04T23:15:01.585Z,14.30
2022-10-04T23:17:39.423Z,13.18
2022-10-04T23:20:13.748Z,13.75
2022-10-04T23:22:44.739Z,12.65
2022-10-04T23:25:16.067Z,16.65
2022-10-04T23:27:43.287Z,13.57
2022-10-04T23:30:14.668Z,16.77
2022-10-04T23:32:43.173Z,16.10
2022-10-04T23:35:19.415Z,13.02
2022-10-04T23:37:47.831Z,13.40
2022-10-04T23:40:17.935Z,15.60
2022-10-04T23:42:47.904Z,13.50
2022-10-04T23:45:25.496Z,15.10
2022-10-04T23:47:55.283Z,11.80
2022-10-04T23:50:25.462Z,15.63
2022-10-04T23:52:56.651Z,13.43
2022-10-04T23:55:25.889Z,12.45
2022-10-04T23:57:52.533Z,12.77
